Time;durP1;ratioP1;P1;durP2;ratioP2;P2;SDS_P1;SDS_P2;PMS_P1;PMS_P2;Temp;Humidity;BMP_temperature;BMP_pressure;BME280_temperature;BME280_humidity;BME280_pressure;Samples;Min_cycle;Max_cycle;Signal;HPM_P1;HPM_P2
2023/08/03 00:00:19;;;;;;;;;;;;;;;28.44;52.10;98891.00;5051304;28;19928;-78
2023/08/03 00:02:45;;;;;;;;;;;;;;;28.43;51.07;98886.69;5051863;28;19913;-78
2023/08/03 00:05:10;;;;;;;;;;;;;;;28.38;52.19;98883.31;5052034;28;19909;-77
2023/08/03 00:07:36;;;;;;;;;;;;;;;28.37;51.77;98881.69;5034089;28;19909;-77
2023/08/03 00:10:02;;;;;;;;;;;;;;;28.32;52.68;98879.91;5033976;28;19936;-78
2023/08/03 00:12:27;;;;;;;;;;;;;;;28.25;51.87;98878.75;5051846;28;19987;-76
2023/08/03 00:14:52;;;;;;;;;;;;;;;28.18;51.02;98879.13;5034104;28;19912;-76
2023/08/03 00:17:18;;;;;;;;;;;;;;;28.13;51.73;98876.53;5053758;28;19905;-77
2023/08/03 00:19:43;;;;;;;;;;;;;;;28.14;51.23;98875.44;5038906;28;19913;-77
2023/08/03 00:22:09;;;;;;;;;;;;;;;28.13;52.09;98876.53;5074908;28;19982;-78
2023/08/03 00:24:34;;;;;;;;;;;;;;;28.10;51.81;98877.97;5058349;28;19908;-81
2023/08/03 00:26:59;;;;;;;;;;;;;;;28.10;52.49;98882.59;5055848;28;20399;-78
2023/08/03 00:29:24;;;;;;;;;;;;;;;28.08;52.00;98873.97;5056419;28;19931;-76
2023/08/03 00:31:50;;;;;;;;;;;;;;;28.04;51.26;98872.97;5056333;28;19913;-76
2023/08/03 00:34:15;;;;;;;;;;;;;;;28.03;51.83;98871.38;5037692;28;20376;-78
2023/08/03 00:36:40;;;;;;;;;;;;;;;27.99;52.20;98871.19;5055478;28;19955;-78
2023/08/03 00:39:05;;;;;;;;;;;;;;;28.01;52.08;98884.44;5055655;28;19912;-78
2023/08/03 00:41:31;;;;;;;;;;;;;;;27.99;52.48;98873.09;5037563;28;20381;-78
2023/08/03 00:43:56;;;;;;;;;;;;;;;27.97;52.63;98875.31;5055319;28;20030;-77
2023/08/03 00:46:21;;;;;;;;;;;;;;;27.97;52.55;98878.03;5055510;28;19948;-78
2023/08/03 00:48:46;;;;;;;;;;;;;;;27.93;52.05;98877.03;5060176;28;19971;-78
2023/08/03 00:51:12;;;;;;;;;;;;;;;27.89;51.55;98868.72;5055349;28;19912;-78
2023/08/03 00:53:37;;;;;;;;;;;;;;;27.83;52.47;98878.09;5055428;28;19958;-78
2023/08/03 00:56:02;;;;;;;;;;;;;;;27.81;53.86;98880.31;5055315;28;19948;-78
2023/08/03 00:58:28;;;;;;;;;;;;;;;27.79;52.92;98883.34;5054904;28;19920;-77
2023/08/03 01:00:53;;;;;;;;;;;;;;;27.83;53.07;98884.31;5037110;28;19999;-78
2023/08/03 01:03:18;;;;;;;;;;;;;;;27.85;52.11;98884.81;5037447;28;19908;-78
2023/08/03 01:05:43;;;;;;;;;;;;;;;27.85;51.94;98890.25;5037485;28;19909;-78
2023/08/03 01:08:09;;;;;;;;;;;;;;;27.78;52.12;98887.16;5055021;28;20301;-77
2023/08/03 01:10:34;;;;;;;;;;;;;;;27.73;52.59;98886.47;5037162;28;19919;-77
2023/08/03 01:13:00;;;;;;;;;;;;;;;27.68;52.12;98887.38;5055143;28;20336;-77
2023/08/03 01:15:25;;;;;;;;;;;;;;;27.59;52.89;98891.91;5054782;28;19912;-78
2023/08/03 01:17:50;;;;;;;;;;;;;;;27.46;52.36;98896.22;5054854;28;19908;-76
2023/08/03 01:20:18;;;;;;;;;;;;;;;27.45;52.97;98899.25;5036994;28;19955;-77
2023/08/03 01:22:43;;;;;;;;;;;;;;;27.48;53.70;98899.44;5055139;28;20003;-77
2023/08/03 01:25:09;;;;;;;;;;;;;;;27.44;52.54;98897.63;5054563;28;19959;-77
2023/08/03 01:27:34;;;;;;;;;;;;;;;27.41;53.44;98901.75;5054359;28;19909;-76
2023/08/03 01:29:59;;;;;;;;;;;;;;;27.38;52.37;98894.22;5053900;28;19962;-79
2023/08/03 01:32:25;;;;;;;;;;;;;;;27.40;53.50;98900.16;5054682;28;19909;-78
2023/08/03 01:34:50;;;;;;;;;;;;;;;27.44;52.96;98903.06;5036675;28;19913;-78
2023/08/03 01:37:17;;;;;;;;;;;;;;;27.48;52.57;98906.75;5054393;28;19909;-79
2023/08/03 01:39:45;;;;;;;;;;;;;;;27.48;53.02;98907.56;5054450;28;19966;-78
2023/08/03 01:42:14;;;;;;;;;;;;;;;27.50;53.30;98905.38;5054674;28;20025;-77
2023/08/03 01:44:40;;;;;;;;;;;;;;;27.49;53.44;98902.94;5053961;28;19904;-77
2023/08/03 01:47:05;;;;;;;;;;;;;;;27.45;53.23;98910.09;5054045;28;19962;-77
2023/08/03 01:49:32;;;;;;;;;;;;;;;27.44;53.91;98913.91;5054513;28;19908;-78
2023/08/03 01:51:57;;;;;;;;;;;;;;;27.42;53.54;98913.41;5054367;28;19909;-78
2023/08/03 01:54:22;;;;;;;;;;;;;;;27.42;53.37;98913.41;5054526;28;20283;-77
2023/08/03 01:56:47;;;;;;;;;;;;;;;27.41;53.68;98917.22;5054198;28;19909;-78
2023/08/03 01:59:13;;;;;;;;;;;;;;;27.38;53.57;98915.13;5036094;28;19916;-77
2023/08/03 02:01:38;;;;;;;;;;;;;;;27.37;53.39;98916.22;5054084;28;19939;-79
2023/08/03 02:04:04;;;;;;;;;;;;;;;27.37;53.15;98921.66;5054060;28;19995;-78
2023/08/03 02:06:29;;;;;;;;;;;;;;;27.36;53.40;98918.13;5053856;28;20395;-78
2023/08/03 02:08:55;;;;;;;;;;;;;;;27.37;52.49;98917.03;5036263;28;19916;-79
2023/08/03 02:11:20;;;;;;;;;;;;;;;27.36;53.94;98911.91;5054090;28;19915;-78
2023/08/03 02:13:45;;;;;;;;;;;;;;;27.36;52.97;98909.19;5053895;28;19916;-78
2023/08/03 02:16:11;;;;;;;;;;;;;;;27.34;52.71;98916.84;5053856;28;19909;-77
2023/08/03 02:18:38;;;;;;;;;;;;;;;27.29;53.26;98919.66;5053751;28;19909;-78
2023/08/03 02:21:04;;;;;;;;;;;;;;;27.24;53.80;98925.97;5053648;28;19913;-78
2023/08/03 02:23:29;;;;;;;;;;;;;;;27.20;53.11;98920.34;5053710;28;20320;-77
2023/08/03 02:25:54;;;;;;;;;;;;;;;27.16;52.72;98918.56;5053585;28;20007;-77
2023/08/03 02:28:19;;;;;;;;;;;;;;;27.12;53.66;98923.78;5053452;28;19909;-78
2023/08/03 02:30:45;;;;;;;;;;;;;;;27.08;53.75;98930.91;5053416;28;19978;-77
2023/08/03 02:33:10;;;;;;;;;;;;;;;27.05;54.23;98928.00;5035586;28;19952;-78
2023/08/03 02:35:39;;;;;;;;;;;;;;;26.99;54.40;98932.72;5053311;28;19970;-78
2023/08/03 02:38:04;;;;;;;;;;;;;;;26.97;52.95;98932.19;5053242;28;19930;-78
2023/08/03 02:40:29;;;;;;;;;;;;;;;26.91;54.08;98933.38;5052988;28;20444;-78
2023/08/03 02:42:55;;;;;;;;;;;;;;;26.83;53.56;98936.78;5053281;28;19915;-78
2023/08/03 02:45:20;;;;;;;;;;;;;;;26.79;52.85;98946.59;5053013;28;20309;-78
2023/08/03 02:47:45;;;;;;;;;;;;;;;26.70;54.08;98948.38;5053020;28;20324;-77
2023/08/03 02:50:10;;;;;;;;;;;;;;;26.60;54.47;98942.03;5053087;28;20301;-78
2023/08/03 02:52:36;;;;;;;;;;;;;;;26.58;54.48;98944.22;5053106;28;19961;-76
2023/08/03 02:55:01;;;;;;;;;;;;;;;26.58;53.81;98948.84;5052893;28;19909;-76
2023/08/03 02:57:26;;;;;;;;;;;;;;;26.53;54.29;98949.75;5053157;28;20381;-78
2023/08/03 02:59:51;;;;;;;;;;;;;;;26.51;53.63;98946.53;5052677;28;19920;-78
2023/08/03 03:02:17;;;;;;;;;;;;;;;26.44;53.85;98959.66;5052635;28;19920;-77
2023/08/03 03:04:42;;;;;;;;;;;;;;;26.46;53.98;98960.16;5052526;28;20348;-79
2023/08/03 03:07:08;;;;;;;;;;;;;;;26.44;54.31;98953.44;5052563;28;19915;-78
2023/08/03 03:09:33;;;;;;;;;;;;;;;26.39;54.80;98959.72;5052532;28;20336;-79
2023/08/03 03:11:59;;;;;;;;;;;;;;;26.40;53.95;98957.81;5052651;28;19967;-78
2023/08/03 03:14:24;;;;;;;;;;;;;;;26.36;53.66;98959.50;5052591;28;19935;-77
2023/08/03 03:16:49;;;;;;;;;;;;;;;26.28;53.84;98961.75;5052447;28;19909;-77
2023/08/03 03:19:14;;;;;;;;;;;;;;;26.22;53.81;98965.66;5034706;28;19968;-77
2023/08/03 03:21:40;;;;;;;;;;;;;;;26.13;54.79;98972.81;5052467;28;19912;-77
2023/08/03 03:24:05;;;;;;;;;;;;;;;26.11;55.30;98974.22;5052644;28;20026;-78
2023/08/03 03:26:30;;;;;;;;;;;;;;;26.06;54.44;98972.41;5052998;28;19909;-77
2023/08/03 03:28:55;;;;;;;;;;;;;;;26.07;54.99;98978.59;5053015;28;20270;-76
2023/08/03 03:31:21;;;;;;;;;;;;;;;26.03;55.36;98972.19;5052880;28;19909;-76
2023/08/03 03:33:46;;;;;;;;;;;;;;;26.06;54.21;98969.69;5056682;28;19912;-77
2023/08/03 03:36:11;;;;;;;;;;;;;;;26.08;53.61;98964.78;5072911;28;19908;-77
2023/08/03 03:38:36;;;;;;;;;;;;;;;26.04;54.59;98963.78;5063725;28;19909;-77
2023/08/03 03:41:02;;;;;;;;;;;;;;;26.04;53.50;98971.09;5052872;28;19920;-78
2023/08/03 03:43:27;;;;;;;;;;;;;;;25.97;55.14;98969.53;5052954;28;20329;-78
2023/08/03 03:45:52;;;;;;;;;;;;;;;25.93;55.09;98971.19;5052846;28;19909;-77
2023/08/03 03:48:18;;;;;;;;;;;;;;;25.86;55.78;98973.47;5052086;28;20344;-76
2023/08/03 03:50:43;;;;;;;;;;;;;;;25.84;54.64;98978.38;5052335;28;19908;-77
2023/08/03 03:53:08;;;;;;;;;;;;;;;25.82;54.63;98974.34;5052255;28;19909;-77
2023/08/03 03:55:33;;;;;;;;;;;;;;;25.81;54.78;98972.72;5052408;28;19908;-78
2023/08/03 03:58:00;;;;;;;;;;;;;;;25.84;55.60;98974.84;5052584;28;19934;-77
2023/08/03 04:00:25;;;;;;;;;;;;;;;25.87;55.32;98979.69;5058613;28;19924;-77
2023/08/03 04:02:52;;;;;;;;;;;;;;;25.91;54.38;98988.81;5055966;28;19912;-79
2023/08/03 04:05:17;;;;;;;;;;;;;;;25.92;54.85;98985.00;5052387;28;19908;-76
2023/08/03 04:07:42;;;;;;;;;;;;;;;25.95;54.88;98987.94;5051834;28;20359;-77
2023/08/03 04:10:07;;;;;;;;;;;;;;;25.95;54.82;98984.44;5034354;28;20274;-79
2023/08/03 04:12:33;;;;;;;;;;;;;;;25.96;53.92;98978.72;5033985;28;19951;-77
2023/08/03 04:14:58;;;;;;;;;;;;;;;25.97;54.99;98977.63;5051833;28;19909;-77
2023/08/03 04:17:23;;;;;;;;;;;;;;;25.98;54.69;98984.66;5051944;28;19915;-77
2023/08/03 04:19:48;;;;;;;;;;;;;;;25.99;54.30;98982.75;5051693;28;20374;-78
2023/08/03 04:22:14;;;;;;;;;;;;;;;26.04;54.48;98984.59;5051923;28;19909;-78
2023/08/03 04:24:39;;;;;;;;;;;;;;;26.05;54.42;98981.59;5033742;28;19915;-75
2023/08/03 04:27:04;;;;;;;;;;;;;;;26.07;54.56;98990.25;5051824;28;19908;-77
2023/08/03 04:29:30;;;;;;;;;;;;;;;26.12;55.02;98990.16;5051447;28;19908;-78
2023/08/03 04:31:55;;;;;;;;;;;;;;;26.14;53.92;98993.38;5051541;28;19912;-77
2023/08/03 04:34:20;;;;;;;;;;;;;;;26.18;54.67;98999.81;5051702;28;20400;-77
2023/08/03 04:36:47;;;;;;;;;;;;;;;26.22;54.54;98997.31;5051458;28;19966;-78
2023/08/03 04:39:13;;;;;;;;;;;;;;;26.26;54.19;98998.34;5051438;28;19908;-78
2023/08/03 04:41:38;;;;;;;;;;;;;;;26.28;54.20;98996.16;5051579;28;19912;-77
2023/08/03 04:44:04;;;;;;;;;;;;;;;26.29;55.03;98998.56;5051405;28;19909;-77
2023/08/03 04:46:29;;;;;;;;;;;;;;;26.33;54.20;99001.50;5051433;28;19955;-79
2023/08/03 04:48:54;;;;;;;;;;;;;;;26.40;54.25;99001.94;5051512;28;19931;-77
2023/08/03 04:51:20;;;;;;;;;;;;;;;26.47;54.53;99001.56;5051289;28;19909;-76
2023/08/03 04:53:45;;;;;;;;;;;;;;;26.55;54.04;98998.97;5051245;28;19921;-77
2023/08/03 04:56:10;;;;;;;;;;;;;;;26.63;53.81;99007.53;5051349;28;19908;-78
2023/08/03 04:58:35;;;;;;;;;;;;;;;26.70;53.68;99007.94;5051190;28;20424;-77
2023/08/03 05:01:01;;;;;;;;;;;;;;;26.75;54.08;99018.69;5051170;28;20003;-77
2023/08/03 05:03:26;;;;;;;;;;;;;;;26.77;53.65;99019.22;5035453;28;20305;-78
2023/08/03 05:05:51;;;;;;;;;;;;;;;26.81;54.28;99025.66;5054892;28;19909;-77
2023/08/03 05:08:16;;;;;;;;;;;;;;;26.84;53.99;99025.06;5054949;28;19908;-77
2023/08/03 05:10:42;;;;;;;;;;;;;;;26.89;54.00;99022.28;5055026;28;19966;-78
2023/08/03 05:13:07;;;;;;;;;;;;;;;26.95;54.19;99028.41;5054691;28;19981;-78
2023/08/03 05:15:32;;;;;;;;;;;;;;;26.95;54.38;99029.22;5055151;28;19909;-78
2023/08/03 05:18:00;;;;;;;;;;;;;;;26.96;54.27;99033.53;5036871;28;19916;-78
2023/08/03 05:20:26;;;;;;;;;;;;;;;27.00;54.44;99037.28;5054654;28;20400;-77
2023/08/03 05:22:51;;;;;;;;;;;;;;;27.07;54.34;99029.56;5054832;28;19908;-78
2023/08/03 05:25:16;;;;;;;;;;;;;;;27.15;53.83;99031.59;5054561;28;19916;-77
2023/08/03 05:27:42;;;;;;;;;;;;;;;27.21;53.97;99035.81;5036720;28;20003;-80
2023/08/03 05:30:07;;;;;;;;;;;;;;;27.22;54.07;99040.13;5036659;28;20398;-78
2023/08/03 05:32:32;;;;;;;;;;;;;;;27.29;53.58;99037.00;5036547;28;19915;-77
2023/08/03 05:34:58;;;;;;;;;;;;;;;27.36;53.92;99036.63;5054353;28;19931;-78
2023/08/03 05:37:23;;;;;;;;;;;;;;;27.41;53.98;99040.03;5036423;28;19987;-78
2023/08/03 05:39:48;;;;;;;;;;;;;;;27.42;54.29;99038.94;5054168;28;19909;-78
2023/08/03 05:42:14;;;;;;;;;;;;;;;27.49;54.20;99033.09;5054266;28;20004;-77
2023/08/03 05:44:39;;;;;;;;;;;;;;;27.55;53.89;99042.78;5036363;28;19917;-78
2023/08/03 05:47:08;;;;;;;;;;;;;;;27.60;53.63;99048.09;5054357;28;19912;-78
2023/08/03 05:49:34;;;;;;;;;;;;;;;27.64;53.46;99046.41;5054468;28;19905;-76
2023/08/03 05:51:59;;;;;;;;;;;;;;;27.67;53.40;99043.09;5036208;28;19915;-77
2023/08/03 05:54:24;;;;;;;;;;;;;;;27.70;53.35;99037.06;5054104;28;20396;-78
2023/08/03 05:56:49;;;;;;;;;;;;;;;27.77;52.99;99033.94;5054219;28;19910;-78
2023/08/03 05:59:18;;;;;;;;;;;;;;;27.84;53.07;99037.84;5054032;28;19920;-76
2023/08/03 06:01:43;;;;;;;;;;;;;;;27.87;51.96;99033.72;5051247;28;19916;-78
2023/08/03 06:04:10;;;;;;;;;;;;;;;27.91;52.52;99037.44;5036192;28;20404;-78
2023/08/03 06:06:36;;;;;;;;;;;;;;;27.96;52.52;99044.66;5036055;28;19971;-77
2023/08/03 06:09:01;;;;;;;;;;;;;;;28.01;52.17;99037.22;5045709;28;19909;-77
2023/08/03 06:11:27;;;;;;;;;;;;;;;28.05;51.50;99037.41;5033861;28;20352;-77
2023/08/03 06:13:52;;;;;;;;;;;;;;;28.11;52.02;99044.34;5033648;28;19913;-79
2023/08/03 06:16:18;;;;;;;;;;;;;;;28.18;51.35;99042.00;5033262;28;19909;-78
2023/08/03 06:18:52;;;;;;;;;;;;;;;28.22;50.73;99040.28;5032857;28;20405;-78
2023/08/03 06:21:18;;;;;;;;;;;;;;;28.29;51.11;99042.63;5037023;28;19975;-77
2023/08/03 06:23:45;;;;;;;;;;;;;;;28.36;50.80;99049.25;5015770;28;19913;-77
2023/08/03 06:26:13;;;;;;;;;;;;;;;28.34;51.23;99046.03;5049335;28;19909;-78
2023/08/03 06:28:39;;;;;;;;;;;;;;;28.32;50.89;99044.75;5053543;28;20017;-78
2023/08/03 06:31:24;;;;;;;;;;;;;;;28.38;50.32;99043.50;5051134;28;19913;-78
2023/08/03 06:33:51;;;;;;;;;;;;;;;28.46;50.47;99037.34;5045148;28;19916;-76
2023/08/03 06:36:20;;;;;;;;;;;;;;;28.54;50.35;99043.94;5052206;28;19912;-76
2023/08/03 06:38:46;;;;;;;;;;;;;;;28.63;50.43;99028.50;5051670;28;19920;-77
2023/08/03 06:41:11;;;;;;;;;;;;;;;28.71;49.97;99034.00;5053410;28;19912;-77
2023/08/03 06:43:37;;;;;;;;;;;;;;;28.76;50.39;99030.34;5054373;28;19912;-78
2023/08/03 06:46:02;;;;;;;;;;;;;;;28.81;49.86;99027.50;5059294;28;19931;-78
2023/08/03 06:48:28;;;;;;;;;;;;;;;28.90;50.22;99031.13;5058483;28;19916;-77
2023/08/03 06:50:54;;;;;;;;;;;;;;;28.99;50.15;99037.44;5051119;28;19927;-77
2023/08/03 06:53:20;;;;;;;;;;;;;;;29.07;49.87;99042.09;5052434;28;20398;-79
2023/08/03 06:55:48;;;;;;;;;;;;;;;29.08;49.68;99032.84;5051748;28;19929;-78
2023/08/03 06:58:13;;;;;;;;;;;;;;;29.16;49.33;99039.44;5051385;28;19912;-78
2023/08/03 07:00:41;;;;;;;;;;;;;;;29.16;49.63;99041.34;5051283;28;20011;-78
2023/08/03 07:03:06;;;;;;;;;;;;;;;29.21;49.48;99041.22;5052527;28;19913;-76
2023/08/03 07:05:31;;;;;;;;;;;;;;;29.28;49.11;99047.00;5048704;28;19923;-78
2023/08/03 07:07:57;;;;;;;;;;;;;;;29.37;49.06;99047.84;5049288;28;19909;-76
2023/08/03 07:10:22;;;;;;;;;;;;;;;29.39;49.11;99043.69;5050024;28;19912;-77
2023/08/03 07:12:47;;;;;;;;;;;;;;;29.44;48.60;99045.50;5049857;28;20412;-76
2023/08/03 07:15:13;;;;;;;;;;;;;;;29.51;48.37;99045.84;5050026;28;19909;-78
2023/08/03 07:17:38;;;;;;;;;;;;;;;29.55;48.15;99049.53;5049780;28;20436;-78
2023/08/03 07:20:04;;;;;;;;;;;;;;;29.62;48.48;99047.16;5051224;28;19921;-78
2023/08/03 07:22:29;;;;;;;;;;;;;;;29.70;47.58;99043.66;5052416;28;20359;-76
2023/08/03 07:24:54;;;;;;;;;;;;;;;29.77;47.82;99047.88;5041665;28;19917;-78
2023/08/03 07:27:20;;;;;;;;;;;;;;;29.85;47.56;99047.88;5051769;28;20447;-78
2023/08/03 07:29:45;;;;;;;;;;;;;;;29.92;47.59;99050.13;5051675;28;19909;-78
2023/08/03 07:32:11;;;;;;;;;;;;;;;29.99;47.62;99048.56;5048210;28;19919;-78
2023/08/03 07:34:37;;;;;;;;;;;;;;;30.10;47.34;99051.00;5033912;28;19962;-78
2023/08/03 07:37:02;;;;;;;;;;;;;;;30.13;46.75;99039.47;5052435;28;19909;-78
2023/08/03 07:39:27;;;;;;;;;;;;;;;30.19;46.82;99049.06;5029471;28;19966;-78
2023/08/03 07:41:53;;;;;;;;;;;;;;;30.24;46.93;99046.19;5029477;28;19917;-76
2023/08/03 07:44:19;;;;;;;;;;;;;;;30.32;46.83;99040.75;5033418;28;19916;-78
2023/08/03 07:46:44;;;;;;;;;;;;;;;30.39;47.03;99043.00;5051023;28;19999;-78
2023/08/03 07:49:10;;;;;;;;;;;;;;;30.45;46.29;99036.25;5050373;28;19955;-78
2023/08/03 07:51:35;;;;;;;;;;;;;;;30.51;46.44;99035.00;5050475;28;20019;-78
2023/08/03 07:54:00;;;;;;;;;;;;;;;30.60;45.88;99033.09;5051124;28;19920;-78
2023/08/03 07:56:26;;;;;;;;;;;;;;;30.63;46.02;99031.66;5052136;28;20386;-77
2023/08/03 07:58:51;;;;;;;;;;;;;;;30.73;46.14;99025.88;5051904;28;19999;-78
2023/08/03 08:01:17;;;;;;;;;;;;;;;30.79;45.92;99032.75;5047195;28;19917;-78
2023/08/03 08:03:43;;;;;;;;;;;;;;;30.80;45.80;99028.91;5050139;28;20389;-78
2023/08/03 08:06:12;;;;;;;;;;;;;;;30.84;45.71;99037.22;5051082;28;19947;-76
2023/08/03 08:08:37;;;;;;;;;;;;;;;30.88;45.49;99033.53;5050765;28;20297;-78
2023/08/03 08:11:03;;;;;;;;;;;;;;;30.97;45.69;99030.78;5033403;28;19919;-77
2023/08/03 08:13:28;;;;;;;;;;;;;;;31.10;45.57;99029.78;5047970;28;19916;-77
2023/08/03 08:16:06;;;;;;;;;;;;;;;31.18;45.26;99028.16;5014054;28;19920;-77
2023/08/03 08:18:32;;;;;;;;;;;;;;;31.25;45.13;99028.50;5013999;28;19915;-76
2023/08/03 08:20:59;;;;;;;;;;;;;;;31.33;44.84;99018.69;5038040;28;19963;-77
2023/08/03 08:23:24;;;;;;;;;;;;;;;31.42;44.77;99027.63;5046863;28;19978;-77
2023/08/03 08:25:50;;;;;;;;;;;;;;;31.50;44.97;99033.03;5034285;28;19909;-78
2023/08/03 08:28:16;;;;;;;;;;;;;;;31.64;44.49;99027.34;5032212;28;20003;-79
2023/08/03 08:30:41;;;;;;;;;;;;;;;31.76;44.30;99027.47;5031926;28;19909;-79
2023/08/03 08:33:06;;;;;;;;;;;;;;;31.89;44.14;99031.06;5031699;28;20021;-78
2023/08/03 08:35:31;;;;;;;;;;;;;;;32.01;43.94;99028.44;5033970;28;19912;-78
2023/08/03 08:37:59;;;;;;;;;;;;;;;32.12;43.34;99032.38;5052712;28;19920;-77
2023/08/03 08:40:24;;;;;;;;;;;;;;;32.22;43.72;99029.25;5054577;28;20382;-78
2023/08/03 08:42:53;;;;;;;;;;;;;;;32.32;42.89;99024.53;5052836;28;19913;-78
2023/08/03 08:45:19;;;;;;;;;;;;;;;32.42;43.45;99021.41;5035161;28;19913;-78
2023/08/03 08:47:45;;;;;;;;;;;;;;;32.53;42.75;99020.66;5031906;28;20404;-78
2023/08/03 08:50:10;;;;;;;;;;;;;;;32.64;42.41;99022.97;5037147;28;19997;-77
2023/08/03 08:52:36;;;;;;;;;;;;;;;32.73;42.80;99024.50;5053408;28;20364;-77
2023/08/03 08:55:15;;;;;;;;;;;;;;;32.84;42.57;99025.69;5037214;28;19913;-78
2023/08/03 08:57:40;;;;;;;;;;;;;;;32.99;42.50;99023.44;5035078;28;19917;-77
2023/08/03 09:00:06;;;;;;;;;;;;;;;33.06;41.42;99026.44;5035235;28;20298;-76
2023/08/03 09:02:32;;;;;;;;;;;;;;;33.14;42.18;99018.13;5036359;28;20389;-78
2023/08/03 09:04:58;;;;;;;;;;;;;;;33.27;41.47;99020.84;5034365;28;19909;-78
2023/08/03 09:07:23;;;;;;;;;;;;;;;33.37;41.42;99020.44;5036824;28;19912;-78
2023/08/03 09:09:49;;;;;;;;;;;;;;;33.50;41.38;99013.06;5054696;28;19940;-78
2023/08/03 09:12:26;;;;;;;;;;;;;;;33.62;40.67;99016.59;5036550;28;19914;-78
2023/08/03 09:14:52;;;;;;;;;;;;;;;33.78;40.74;99016.69;5054488;28;19908;-78
2023/08/03 09:17:18;;;;;;;;;;;;;;;33.92;40.48;99008.91;5028777;28;20003;-77
2023/08/03 09:19:45;;;;;;;;;;;;;;;34.05;40.58;99006.94;5048863;28;20361;-79
2023/08/03 09:22:10;;;;;;;;;;;;;;;34.15;40.41;99006.47;5036429;28;19915;-78
2023/08/03 09:24:35;;;;;;;;;;;;;;;34.35;40.10;99004.72;5050189;28;19912;-80
2023/08/03 09:27:01;;;;;;;;;;;;;;;34.54;39.22;99001.34;5052965;28;20328;-79
2023/08/03 09:29:30;;;;;;;;;;;;;;;34.69;38.96;99003.31;5054125;28;19913;-78
2023/08/03 09:32:02;;;;;;;;;;;;;;;34.83;39.05;99000.97;5054136;28;19917;-79
2023/08/03 09:34:36;;;;;;;;;;;;;;;34.91;38.87;98994.53;5053254;28;19919;-77
2023/08/03 09:37:03;;;;;;;;;;;;;;;35.00;38.15;98992.44;5054428;28;19908;-78
2023/08/03 09:39:32;;;;;;;;;;;;;;;35.16;38.08;98986.13;5054053;28;19909;-79
2023/08/03 09:41:58;;;;;;;;;;;;;;;35.34;37.80;98984.66;5036064;28;20363;-78
2023/08/03 09:44:25;;;;;;;;;;;;;;;35.52;38.36;98979.56;5053347;28;19913;-77
2023/08/03 09:46:51;;;;;;;;;;;;;;;35.74;36.34;98984.41;5053957;28;19928;-75
2023/08/03 09:49:16;;;;;;;;;;;;;;;35.99;36.25;98982.22;5051789;28;20003;-78
2023/08/03 09:51:43;;;;;;;;;;;;;;;36.17;34.69;98980.66;5045573;28;19913;-77
2023/08/03 09:54:17;;;;;;;;;;;;;;;36.32;34.92;98975.47;5045990;28;20400;-77
2023/08/03 09:56:52;;;;;;;;;;;;;;;36.47;35.51;98978.16;5054008;28;20313;-75
2023/08/03 09:59:19;;;;;;;;;;;;;;;36.67;33.75;98967.09;5053371;28;19917;-78
2023/08/03 10:01:45;;;;;;;;;;;;;;;36.84;33.88;98974.91;5035677;28;19916;-78
2023/08/03 10:04:13;;;;;;;;;;;;;;;36.86;35.66;98967.06;5051202;28;20409;-78
2023/08/03 10:06:40;;;;;;;;;;;;;;;37.00;33.32;98972.81;5051162;28;19962;-78
2023/08/03 10:09:06;;;;;;;;;;;;;;;37.09;33.35;98965.09;5053422;28;19912;-76
2023/08/03 10:11:35;;;;;;;;;;;;;;;37.24;33.80;98960.69;5052986;28;19912;-78
2023/08/03 10:14:03;;;;;;;;;;;;;;;37.42;34.59;98966.44;5051454;28;19962;-78
2023/08/03 10:16:28;;;;;;;;;;;;;;;37.57;33.27;98959.19;5053093;28;19963;-77
2023/08/03 10:18:54;;;;;;;;;;;;;;;37.73;32.29;98954.31;5051416;28;19920;-77
2023/08/03 10:21:20;;;;;;;;;;;;;;;37.85;32.83;98954.88;5052731;28;20012;-78
2023/08/03 10:24:04;;;;;;;;;;;;;;;37.99;33.89;98945.22;5035443;28;19908;-78
2023/08/03 10:26:29;;;;;;;;;;;;;;;38.02;31.77;98958.25;5053372;28;19960;-78
2023/08/03 10:28:54;;;;;;;;;;;;;;;38.15;31.47;98938.38;5033420;28;20039;-78
2023/08/03 10:31:20;;;;;;;;;;;;;;;38.33;30.19;98935.81;5050139;28;19916;-78
2023/08/03 10:33:51;;;;;;;;;;;;;;;38.46;31.37;98939.09;5029708;28;20306;-77
2023/08/03 10:36:26;;;;;;;;;;;;;;;38.63;32.21;98929.44;5052018;28;20355;-77
2023/08/03 10:38:51;;;;;;;;;;;;;;;38.75;30.31;98929.97;5018129;28;19951;-77
2023/08/03 10:41:20;;;;;;;;;;;;;;;38.82;29.56;98923.72;5033031;28;20358;-78
2023/08/03 10:44:05;;;;;;;;;;;;;;;38.94;30.21;98919.84;5045928;28;19963;-77
2023/08/03 10:46:31;;;;;;;;;;;;;;;39.06;28.24;98917.63;5052455;28;19913;-77
2023/08/03 10:48:56;;;;;;;;;;;;;;;39.29;29.55;98911.84;5051958;28;20439;-78
2023/08/03 10:51:25;;;;;;;;;;;;;;;39.25;27.83;98913.00;5033680;28;19916;-78
2023/08/03 10:53:50;;;;;;;;;;;;;;;39.36;29.64;98913.84;5034733;28;19915;-79
2023/08/03 10:56:15;;;;;;;;;;;;;;;39.48;27.55;98916.31;5034742;28;19909;-76
2023/08/03 10:58:50;;;;;;;;;;;;;;;39.68;29.29;98912.13;5051804;28;19916;-75
2023/08/03 11:01:22;;;;;;;;;;;;;;;39.79;28.68;98916.91;5051540;28;20333;-77
2023/08/03 11:03:48;;;;;;;;;;;;;;;39.90;27.81;98903.91;5052505;28;19915;-77
2023/08/03 11:06:13;;;;;;;;;;;;;;;39.99;28.83;98901.59;5051364;28;19909;-77
2023/08/03 11:08:39;;;;;;;;;;;;;;;39.94;28.73;98893.69;5051738;28;19912;-77
2023/08/03 11:11:09;;;;;;;;;;;;;;;40.10;29.48;98898.84;5051113;28;19983;-76
2023/08/03 11:13:34;;;;;;;;;;;;;;;40.03;27.41;98889.38;5053050;28;19908;-75
2023/08/03 11:15:59;;;;;;;;;;;;;;;40.13;27.46;98890.56;5046274;28;19967;-76
2023/08/03 11:18:25;;;;;;;;;;;;;;;40.30;27.72;98895.38;5035504;28;20381;-76
2023/08/03 11:20:51;;;;;;;;;;;;;;;40.28;26.19;98881.16;5052054;28;20306;-77
2023/08/03 11:23:19;;;;;;;;;;;;;;;40.37;25.10;98877.22;5025803;28;19916;-77
2023/08/03 11:25:45;;;;;;;;;;;;;;;40.49;26.81;98879.63;5051031;28;19909;-77
2023/08/03 11:28:17;;;;;;;;;;;;;;;40.52;27.60;98878.81;5051950;28;20317;-78
2023/08/03 11:30:43;;;;;;;;;;;;;;;40.76;25.38;98868.94;5050330;28;19913;-74
2023/08/03 11:33:11;;;;;;;;;;;;;;;40.94;26.76;98876.09;5046887;28;19919;-78
2023/08/03 11:35:37;;;;;;;;;;;;;;;40.99;27.00;98874.13;5036893;28;19983;-77
2023/08/03 11:38:05;;;;;;;;;;;;;;;41.06;25.89;98865.78;5050894;28;20007;-76
2023/08/03 11:40:30;;;;;;;;;;;;;;;41.22;26.39;98868.94;5051067;28;19965;-78
2023/08/03 11:42:56;;;;;;;;;;;;;;;41.36;24.04;98855.06;5033290;28;19912;-78
2023/08/03 11:45:21;;;;;;;;;;;;;;;41.42;23.77;98855.44;5051373;28;19912;-77
2023/08/03 11:47:48;;;;;;;;;;;;;;;41.49;24.14;98853.41;5032464;28;19962;-76
2023/08/03 11:50:15;;;;;;;;;;;;;;;41.54;23.34;98844.69;5049988;28;19912;-78
2023/08/03 11:52:40;;;;;;;;;;;;;;;41.71;24.26;98856.16;5014209;28;20000;-77
2023/08/03 11:55:06;;;;;;;;;;;;;;;41.71;22.78;98856.94;5047376;28;20013;-77
2023/08/03 12:00:15;;;;;;;;;;;;;;;41.68;26.20;98845.88;5031499;28;19940;-78
2023/08/03 12:02:42;;;;;;;;;;;;;;;41.78;24.82;98853.34;5040367;28;19913;-77
2023/08/03 12:05:08;;;;;;;;;;;;;;;41.77;23.27;98846.22;5038745;28;19931;-77
2023/08/03 12:07:33;;;;;;;;;;;;;;;41.74;24.42;98836.72;5050176;28;19913;-78
2023/08/03 12:09:59;;;;;;;;;;;;;;;41.92;23.69;98838.63;5044251;28;19923;-78
2023/08/03 12:12:24;;;;;;;;;;;;;;;42.08;22.60;98836.16;5033130;28;20305;-78
2023/08/03 12:14:49;;;;;;;;;;;;;;;42.18;22.56;98830.53;5051110;28;20302;-78
2023/08/03 12:17:15;;;;;;;;;;;;;;;42.22;24.46;98829.72;5039300;28;19917;-76
2023/08/03 12:19:40;;;;;;;;;;;;;;;42.12;24.58;98836.94;5051017;28;20368;-76
2023/08/03 12:22:06;;;;;;;;;;;;;;;41.86;23.94;98838.25;5049124;28;19917;-78
2023/08/03 12:24:31;;;;;;;;;;;;;;;41.94;24.06;98834.25;5051221;28;19909;-78
2023/08/03 12:26:57;;;;;;;;;;;;;;;42.07;21.96;98827.06;5051463;28;19909;-77
2023/08/03 12:29:22;;;;;;;;;;;;;;;42.12;22.89;98823.84;5051036;28;19967;-78
2023/08/03 12:31:48;;;;;;;;;;;;;;;42.19;22.12;98823.78;5032036;28;19913;-81
2023/08/03 12:34:13;;;;;;;;;;;;;;;42.31;21.44;98818.94;5051476;28;20006;-79
2023/08/03 12:36:38;;;;;;;;;;;;;;;42.25;23.44;98821.38;5050633;28;19995;-77
2023/08/03 12:39:05;;;;;;;;;;;;;;;42.30;23.44;98806.28;5025378;28;20314;-78
2023/08/03 12:41:30;;;;;;;;;;;;;;;42.43;21.79;98808.19;5030036;28;19913;-77
2023/08/03 12:43:56;;;;;;;;;;;;;;;42.55;20.96;98811.66;5031415;28;19909;-78